sensor_id;sensor_type;location;lat;lon;timestamp;pressure;altitude;pressure_sealevel;temperature;humidity
9257;BME280;4665;51.368;6.782;2023-07-13T00:00:37;101140.31;;;16.96;100.00
9257;BME280;4665;51.368;6.782;2023-07-13T00:03:04;101136.78;;;16.96;100.00
9257;BME280;4665;51.368;6.782;2023-07-13T00:05:30;101132.19;;;16.90;100.00
9257;BME280;4665;51.368;6.782;2023-07-13T00:07:56;101137.00;;;16.79;100.00
9257;BME280;4665;51.368;6.782;2023-07-13T00:10:21;101147.03;;;16.86;100.00
9257;BME280;4665;51.368;6.782;2023-07-13T00:12:48;101146.00;;;16.87;100.00
9257;BME280;4665;51.368;6.782;2023-07-13T00:15:20;101136.00;;;16.80;100.00
9257;BME280;4665;51.368;6.782;2023-07-13T00:17:49;101138.34;;;16.75;100.00
9257;BME280;4665;51.368;6.782;2023-07-13T00:20:15;101141.81;;;16.69;100.00
9257;BME280;4665;51.368;6.782;2023-07-13T00:22:40;101139.28;;;16.68;100.00
9257;BME280;4665;51.368;6.782;2023-07-13T00:25:06;101154.16;;;16.78;100.00
9257;BME280;4665;51.368;6.782;2023-07-13T00:27:31;101137.16;;;16.63;100.00
9257;BME280;4665;51.368;6.782;2023-07-13T00:29:57;101144.84;;;16.66;100.00
9257;BME280;4665;51.368;6.782;2023-07-13T00:32:23;101132.50;;;16.57;100.00
9257;BME280;4665;51.368;6.782;2023-07-13T00:34:50;101135.69;;;16.60;100.00
9257;BME280;4665;51.368;6.782;2023-07-13T00:37:16;101159.03;;;16.75;100.00
9257;BME280;4665;51.368;6.782;2023-07-13T00:39:41;101134.03;;;16.59;100.00
9257;BME280;4665;51.368;6.782;2023-07-13T00:42:07;101131.25;;;16.53;100.00
9257;BME280;4665;51.368;6.782;2023-07-13T00:44:32;101146.16;;;16.55;100.00
9257;BME280;4665;51.368;6.782;2023-07-13T00:46:58;101148.47;;;16.58;100.00
9257;BME280;4665;51.368;6.782;2023-07-13T00:49:25;101133.34;;;16.42;100.00
9257;BME280;4665;51.368;6.782;2023-07-13T00:52:19;101146.13;;;16.40;100.00
9257;BME280;4665;51.368;6.782;2023-07-13T00:54:46;101159.22;;;16.44;100.00
9257;BME280;4665;51.368;6.782;2023-07-13T00:57:16;101132.31;;;16.29;100.00
9257;BME280;4665;51.368;6.782;2023-07-13T00:59:49;101159.19;;;16.29;100.00
9257;BME280;4665;51.368;6.782;2023-07-13T01:02:16;101162.81;;;16.21;100.00
9257;BME280;4665;51.368;6.782;2023-07-13T01:04:41;101167.25;;;16.14;100.00
9257;BME280;4665;51.368;6.782;2023-07-13T01:07:10;101143.19;;;15.97;100.00
9257;BME280;4665;51.368;6.782;2023-07-13T01:09:37;101159.16;;;15.99;100.00
9257;BME280;4665;51.368;6.782;2023-07-13T01:12:02;101155.69;;;15.90;100.00
9257;BME280;4665;51.368;6.782;2023-07-13T01:14:28;101155.88;;;15.89;100.00
9257;BME280;4665;51.368;6.782;2023-07-13T01:16:54;101147.69;;;15.82;100.00
9257;BME280;4665;51.368;6.782;2023-07-13T01:19:33;101164.22;;;15.94;100.00
9257;BME280;4665;51.368;6.782;2023-07-13T01:22:11;101159.03;;;15.92;100.00
9257;BME280;4665;51.368;6.782;2023-07-13T01:24:39;101155.59;;;15.98;100.00
9257;BME280;4665;51.368;6.782;2023-07-13T01:27:07;101146.06;;;15.96;100.00
9257;BME280;4665;51.368;6.782;2023-07-13T01:29:34;101140.94;;;15.86;100.00
9257;BME280;4665;51.368;6.782;2023-07-13T01:32:00;101136.13;;;15.82;100.00
9257;BME280;4665;51.368;6.782;2023-07-13T01:34:26;101157.22;;;15.85;100.00
9257;BME280;4665;51.368;6.782;2023-07-13T01:36:52;101157.09;;;15.78;100.00
9257;BME280;4665;51.368;6.782;2023-07-13T01:39:20;101145.09;;;15.66;100.00
9257;BME280;4665;51.368;6.782;2023-07-13T01:41:46;101137.94;;;15.58;100.00
9257;BME280;4665;51.368;6.782;2023-07-13T01:44:11;101146.81;;;15.58;100.00
9257;BME280;4665;51.368;6.782;2023-07-13T01:46:37;101159.34;;;15.66;100.00
9257;BME280;4665;51.368;6.782;2023-07-13T01:49:02;101141.44;;;15.58;100.00
9257;BME280;4665;51.368;6.782;2023-07-13T01:51:28;101163.56;;;15.69;100.00
9257;BME280;4665;51.368;6.782;2023-07-13T01:53:53;101174.41;;;15.75;100.00
9257;BME280;4665;51.368;6.782;2023-07-13T01:56:18;101148.16;;;15.63;100.00
9257;BME280;4665;51.368;6.782;2023-07-13T01:58:45;101158.06;;;15.62;100.00
9257;BME280;4665;51.368;6.782;2023-07-13T02:01:11;101157.84;;;15.64;100.00
9257;BME280;4665;51.368;6.782;2023-07-13T02:03:36;101161.41;;;15.64;100.00
9257;BME280;4665;51.368;6.782;2023-07-13T02:06:01;101167.59;;;15.65;100.00
9257;BME280;4665;51.368;6.782;2023-07-13T02:08:27;101152.25;;;15.50;100.00
9257;BME280;4665;51.368;6.782;2023-07-13T02:10:52;101172.16;;;15.64;100.00
9257;BME280;4665;51.368;6.782;2023-07-13T02:13:18;101168.47;;;15.57;100.00
9257;BME280;4665;51.368;6.782;2023-07-13T02:15:43;101182.75;;;15.57;100.00
9257;BME280;4665;51.368;6.782;2023-07-13T02:18:08;101178.91;;;15.52;100.00
9257;BME280;4665;51.368;6.782;2023-07-13T02:20:34;101147.09;;;15.41;100.00
9257;BME280;4665;51.368;6.782;2023-07-13T02:23:00;101154.31;;;15.40;100.00
9257;BME280;4665;51.368;6.782;2023-07-13T02:25:25;101152.66;;;15.39;100.00
9257;BME280;4665;51.368;6.782;2023-07-13T02:27:52;101167.72;;;15.48;100.00
9257;BME280;4665;51.368;6.782;2023-07-13T02:30:17;101162.09;;;15.35;100.00
9257;BME280;4665;51.368;6.782;2023-07-13T02:32:43;101175.78;;;15.48;100.00
9257;BME280;4665;51.368;6.782;2023-07-13T02:35:09;101181.13;;;15.48;100.00
9257;BME280;4665;51.368;6.782;2023-07-13T02:37:35;101176.75;;;15.47;100.00
9257;BME280;4665;51.368;6.782;2023-07-13T02:40:00;101189.00;;;15.50;100.00
9257;BME280;4665;51.368;6.782;2023-07-13T02:42:25;101172.13;;;15.41;100.00
9257;BME280;4665;51.368;6.782;2023-07-13T02:44:51;101160.59;;;15.32;100.00
9257;BME280;4665;51.368;6.782;2023-07-13T02:47:16;101176.63;;;15.41;100.00
9257;BME280;4665;51.368;6.782;2023-07-13T02:49:42;101176.31;;;15.35;100.00
9257;BME280;4665;51.368;6.782;2023-07-13T02:52:07;101165.97;;;15.32;100.00
9257;BME280;4665;51.368;6.782;2023-07-13T02:54:32;101163.63;;;15.29;100.00
9257;BME280;4665;51.368;6.782;2023-07-13T02:56:58;101174.84;;;15.33;100.00
9257;BME280;4665;51.368;6.782;2023-07-13T02:59:23;101181.03;;;15.33;100.00
9257;BME280;4665;51.368;6.782;2023-07-13T03:01:49;101185.75;;;15.31;100.00
9257;BME280;4665;51.368;6.782;2023-07-13T03:04:14;101183.06;;;15.31;100.00
9257;BME280;4665;51.368;6.782;2023-07-13T03:06:40;101189.81;;;15.27;100.00
9257;BME280;4665;51.368;6.782;2023-07-13T03:09:05;101179.09;;;15.19;100.00
9257;BME280;4665;51.368;6.782;2023-07-13T03:11:31;101182.63;;;15.20;100.00
9257;BME280;4665;51.368;6.782;2023-07-13T03:13:59;101181.13;;;15.17;100.00
9257;BME280;4665;51.368;6.782;2023-07-13T03:16:26;101182.47;;;15.13;100.00
9257;BME280;4665;51.368;6.782;2023-07-13T03:18:52;101189.03;;;15.10;100.00
9257;BME280;4665;51.368;6.782;2023-07-13T03:21:17;101194.59;;;15.09;100.00
9257;BME280;4665;51.368;6.782;2023-07-13T03:23:43;101192.44;;;15.04;100.00
9257;BME280;4665;51.368;6.782;2023-07-13T03:26:14;101199.81;;;15.02;100.00
9257;BME280;4665;51.368;6.782;2023-07-13T03:28:41;101198.13;;;15.01;100.00
9257;BME280;4665;51.368;6.782;2023-07-13T03:31:09;101200.31;;;14.98;100.00
9257;BME280;4665;51.368;6.782;2023-07-13T03:33:36;101201.81;;;15.00;100.00
9257;BME280;4665;51.368;6.782;2023-07-13T03:36:03;101201.81;;;15.00;100.00
9257;BME280;4665;51.368;6.782;2023-07-13T03:38:29;101206.38;;;15.00;100.00
9257;BME280;4665;51.368;6.782;2023-07-13T03:40:55;101220.75;;;14.99;100.00
9257;BME280;4665;51.368;6.782;2023-07-13T03:43:20;101208.72;;;14.94;100.00
9257;BME280;4665;51.368;6.782;2023-07-13T03:45:46;101228.34;;;14.95;100.00
9257;BME280;4665;51.368;6.782;2023-07-13T03:48:12;101222.31;;;14.93;100.00
9257;BME280;4665;51.368;6.782;2023-07-13T03:50:37;101227.31;;;14.96;100.00
9257;BME280;4665;51.368;6.782;2023-07-13T03:53:04;101231.84;;;14.96;100.00
9257;BME280;4665;51.368;6.782;2023-07-13T03:55:30;101231.84;;;14.96;100.00
9257;BME280;4665;51.368;6.782;2023-07-13T03:58:00;101233.03;;;14.93;100.00
9257;BME280;4665;51.368;6.782;2023-07-13T04:00:26;101234.22;;;14.90;100.00
9257;BME280;4665;51.368;6.782;2023-07-13T04:02:52;101226.69;;;14.86;100.00
9257;BME280;4665;51.368;6.782;2023-07-13T04:05:17;101231.03;;;14.87;100.00
9257;BME280;4665;51.368;6.782;2023-07-13T04:07:44;101229.69;;;14.83;100.00
9257;BME280;4665;51.368;6.782;2023-07-13T04:10:09;101243.28;;;14.81;100.00
9257;BME280;4665;51.368;6.782;2023-07-13T04:12:35;101250.31;;;14.82;100.00
9257;BME280;4665;51.368;6.782;2023-07-13T04:15:01;101248.34;;;14.76;100.00
9257;BME280;4665;51.368;6.782;2023-07-13T04:17:26;101255.38;;;14.77;100.00
9257;BME280;4665;51.368;6.782;2023-07-13T04:19:51;101263.25;;;14.79;100.00
9257;BME280;4665;51.368;6.782;2023-07-13T04:22:17;101257.88;;;14.79;100.00
9257;BME280;4665;51.368;6.782;2023-07-13T04:24:42;101259.19;;;14.83;100.00
9257;BME280;4665;51.368;6.782;2023-07-13T04:27:08;101250.50;;;14.81;100.00
9257;BME280;4665;51.368;6.782;2023-07-13T04:29:34;101257.19;;;14.85;100.00
9257;BME280;4665;51.368;6.782;2023-07-13T04:31:59;101256.00;;;14.87;100.00
9257;BME280;4665;51.368;6.782;2023-07-13T04:34:25;101259.88;;;14.85;100.00
9257;BME280;4665;51.368;6.782;2023-07-13T04:36:50;101259.53;;;14.88;100.00
9257;BME280;4665;51.368;6.782;2023-07-13T04:39:16;101253.50;;;14.86;100.00
9257;BME280;4665;51.368;6.782;2023-07-13T04:41:43;101255.84;;;14.89;100.00
9257;BME280;4665;51.368;6.782;2023-07-13T04:44:08;101264.56;;;14.91;100.00
9257;BME280;4665;51.368;6.782;2023-07-13T04:46:33;101263.53;;;14.92;100.00
9257;BME280;4665;51.368;6.782;2023-07-13T04:48:59;101257.03;;;14.94;100.00
9257;BME280;4665;51.368;6.782;2023-07-13T04:51:24;101257.84;;;14.95;100.00
9257;BME280;4665;51.368;6.782;2023-07-13T04:53:51;101261.53;;;14.94;100.00
9257;BME280;4665;51.368;6.782;2023-07-13T04:56:16;101254.16;;;14.96;100.00
9257;BME280;4665;51.368;6.782;2023-07-13T04:58:42;101253.78;;;14.99;100.00
9257;BME280;4665;51.368;6.782;2023-07-13T05:01:09;101256.16;;;14.94;100.00
9257;BME280;4665;51.368;6.782;2023-07-13T05:03:34;101257.84;;;14.95;100.00
9257;BME280;4665;51.368;6.782;2023-07-13T05:06:02;101262.53;;;14.93;100.00
9257;BME280;4665;51.368;6.782;2023-07-13T05:08:28;101262.88;;;14.98;100.00
9257;BME280;4665;51.368;6.782;2023-07-13T05:10:54;101273.06;;;15.03;100.00
9257;BME280;4665;51.368;6.782;2023-07-13T05:13:20;101270.22;;;15.04;100.00
9257;BME280;4665;51.368;6.782;2023-07-13T05:15:47;101269.38;;;15.12;100.00
9257;BME280;4665;51.368;6.782;2023-07-13T05:18:12;101271.38;;;15.18;100.00
9257;BME280;4665;51.368;6.782;2023-07-13T05:20:38;101264.16;;;15.19;100.00
9257;BME280;4665;51.368;6.782;2023-07-13T05:23:03;101270.19;;;15.21;100.00
9257;BME280;4665;51.368;6.782;2023-07-13T05:25:29;101283.75;;;15.27;100.00
9257;BME280;4665;51.368;6.782;2023-07-13T05:27:54;101282.88;;;15.35;100.00
9257;BME280;4665;51.368;6.782;2023-07-13T05:30:20;101278.53;;;15.34;100.00
9257;BME280;4665;51.368;6.782;2023-07-13T05:32:45;101283.53;;;15.37;100.00
9257;BME280;4665;51.368;6.782;2023-07-13T05:35:11;101289.22;;;15.42;100.00
9257;BME280;4665;51.368;6.782;2023-07-13T05:37:37;101287.19;;;15.44;100.00
9257;BME280;4665;51.368;6.782;2023-07-13T05:40:03;101300.94;;;15.49;100.00
9257;BME280;4665;51.368;6.782;2023-07-13T05:42:29;101299.75;;;15.52;100.00
9257;BME280;4665;51.368;6.782;2023-07-13T05:44:56;101297.19;;;15.58;100.00
9257;BME280;4665;51.368;6.782;2023-07-13T05:47:22;101300.72;;;15.59;100.00
9257;BME280;4665;51.368;6.782;2023-07-13T05:49:47;101306.59;;;15.63;100.00
9257;BME280;4665;51.368;6.782;2023-07-13T05:52:13;101305.22;;;15.67;100.00
9257;BME280;4665;51.368;6.782;2023-07-13T05:54:38;101314.59;;;15.79;100.00
9257;BME280;4665;51.368;6.782;2023-07-13T05:57:04;101317.81;;;15.74;100.00
9257;BME280;4665;51.368;6.782;2023-07-13T05:59:29;101316.25;;;15.80;100.00
9257;BME280;4665;51.368;6.782;2023-07-13T06:01:55;101316.38;;;15.87;100.00
9257;BME280;4665;51.368;6.782;2023-07-13T06:04:20;101323.09;;;15.91;100.00
9257;BME280;4665;51.368;6.782;2023-07-13T06:06:46;101328.97;;;15.94;100.00
9257;BME280;4665;51.368;6.782;2023-07-13T06:09:11;101324.56;;;16.02;100.00
9257;BME280;4665;51.368;6.782;2023-07-13T06:11:37;101327.25;;;16.02;100.00
9257;BME280;4665;51.368;6.782;2023-07-13T06:14:02;101330.06;;;16.08;100.00
9257;BME280;4665;51.368;6.782;2023-07-13T06:16:29;101329.19;;;16.08;100.00
9257;BME280;4665;51.368;6.782;2023-07-13T06:18:54;101330.75;;;16.02;100.00
9257;BME280;4665;51.368;6.782;2023-07-13T06:21:21;101336.25;;;16.09;100.00
9257;BME280;4665;51.368;6.782;2023-07-13T06:23:49;101340.25;;;16.13;100.00
9257;BME280;4665;51.368;6.782;2023-07-13T06:26:15;101341.09;;;16.13;100.00
9257;BME280;4665;51.368;6.782;2023-07-13T06:28:41;101331.84;;;16.16;100.00
9257;BME280;4665;51.368;6.782;2023-07-13T06:31:08;101345.59;;;16.21;100.00
9257;BME280;4665;51.368;6.782;2023-07-13T06:33:34;101343.97;;;16.35;100.00
9257;BME280;4665;51.368;6.782;2023-07-13T06:36:00;101345.47;;;16.37;100.00
9257;BME280;4665;51.368;6.782;2023-07-13T06:38:26;101338.72;;;16.41;100.00
9257;BME280;4665;51.368;6.782;2023-07-13T06:40:51;101346.84;;;16.56;100.00
9257;BME280;4665;51.368;6.782;2023-07-13T06:43:17;101355.63;;;16.73;100.00
9257;BME280;4665;51.368;6.782;2023-07-13T06:45:48;101345.94;;;16.87;100.00
9257;BME280;4665;51.368;6.782;2023-07-13T06:48:15;101340.97;;;16.99;100.00
9257;BME280;4665;51.368;6.782;2023-07-13T06:50:42;101352.63;;;16.91;100.00
9257;BME280;4665;51.368;6.782;2023-07-13T06:53:08;101354.38;;;16.84;100.00
9257;BME280;4665;51.368;6.782;2023-07-13T06:55:34;101356.25;;;16.83;100.00
9257;BME280;4665;51.368;6.782;2023-07-13T06:58:06;101349.88;;;16.76;100.00
9257;BME280;4665;51.368;6.782;2023-07-13T07:00:32;101375.97;;;16.76;100.00
9257;BME280;4665;51.368;6.782;2023-07-13T07:02:57;101370.78;;;16.66;100.00
9257;BME280;4665;51.368;6.782;2023-07-13T07:05:23;101369.13;;;16.65;100.00
9257;BME280;4665;51.368;6.782;2023-07-13T07:07:53;101384.56;;;16.71;100.00
9257;BME280;4665;51.368;6.782;2023-07-13T07:10:22;101382.03;;;16.70;100.00
9257;BME280;4665;51.368;6.782;2023-07-13T07:12:48;101383.69;;;16.71;100.00
9257;BME280;4665;51.368;6.782;2023-07-13T07:15:13;101374.50;;;16.65;100.00
9257;BME280;4665;51.368;6.782;2023-07-13T07:17:39;101372.66;;;16.66;100.00
9257;BME280;4665;51.368;6.782;2023-07-13T07:20:05;101387.31;;;16.63;100.00
9257;BME280;4665;51.368;6.782;2023-07-13T07:22:31;101387.69;;;16.60;100.00
9257;BME280;4665;51.368;6.782;2023-07-13T07:24:57;101394.72;;;16.61;100.00
9257;BME280;4665;51.368;6.782;2023-07-13T07:27:24;101392.22;;;16.59;100.00
9257;BME280;4665;51.368;6.782;2023-07-13T07:29:50;101390.91;;;16.55;100.00
9257;BME280;4665;51.368;6.782;2023-07-13T07:32:15;101391.91;;;16.54;100.00
9257;BME280;4665;51.368;6.782;2023-07-13T07:34:41;101387.56;;;16.53;100.00
9257;BME280;4665;51.368;6.782;2023-07-13T07:37:06;101388.38;;;16.54;100.00
9257;BME280;4665;51.368;6.782;2023-07-13T07:39:32;101386.06;;;16.51;100.00
9257;BME280;4665;51.368;6.782;2023-07-13T07:41:58;101382.63;;;16.57;100.00
9257;BME280;4665;51.368;6.782;2023-07-13T07:44:26;101389.00;;;16.64;100.00
9257;BME280;4665;51.368;6.782;2023-07-13T07:46:52;101391.03;;;16.62;100.00
9257;BME280;4665;51.368;6.782;2023-07-13T07:49:17;101378.56;;;16.61;100.00
9257;BME280;4665;51.368;6.782;2023-07-13T07:51:43;101381.09;;;16.62;100.00
9257;BME280;4665;51.368;6.782;2023-07-13T07:54:09;101385.78;;;16.69;100.00
9257;BME280;4665;51.368;6.782;2023-07-13T07:56:34;101391.59;;;16.72;100.00
9257;BME280;4665;51.368;6.782;2023-07-13T07:58:59;101380.47;;;16.75;100.00
9257;BME280;4665;51.368;6.782;2023-07-13T08:01:25;101385.00;;;16.83;100.00
9257;BME280;4665;51.368;6.782;2023-07-13T08:03:50;101387.59;;;16.91;100.00
9257;BME280;4665;51.368;6.782;2023-07-13T08:06:16;101394.78;;;16.99;100.00
9257;BME280;4665;51.368;6.782;2023-07-13T08:08:44;101385.31;;;17.03;100.00
9257;BME280;4665;51.368;6.782;2023-07-13T08:11:10;101382.63;;;17.03;100.00
9257;BME280;4665;51.368;6.782;2023-07-13T08:13:36;101381.78;;;17.02;100.00
9257;BME280;4665;51.368;6.782;2023-07-13T08:16:04;101379.22;;;17.09;100.00
9257;BME280;4665;51.368;6.782;2023-07-13T08:18:30;101375.03;;;17.21;100.00
9257;BME280;4665;51.368;6.782;2023-07-13T08:20:55;101375.41;;;17.33;100.00
9257;BME280;4665;51.368;6.782;2023-07-13T08:23:25;101367.81;;;17.37;100.00
9257;BME280;4665;51.368;6.782;2023-07-13T08:25:52;101369.13;;;17.56;100.00
9257;BME280;4665;51.368;6.782;2023-07-13T08:28:21;101367.72;;;17.75;100.00
9257;BME280;4665;51.368;6.782;2023-07-13T08:30:47;101363.91;;;17.84;100.00
9257;BME280;4665;51.368;6.782;2023-07-13T08:33:20;101372.38;;;17.81;100.00
9257;BME280;4665;51.368;6.782;2023-07-13T08:35:47;101370.78;;;17.72;100.00
9257;BME280;4665;51.368;6.782;2023-07-13T08:38:12;101377.94;;;17.79;100.00
9257;BME280;4665;51.368;6.782;2023-07-13T08:40:39;101377.09;;;17.79;100.00
9257;BME280;4665;51.368;6.782;2023-07-13T08:43:04;101375.63;;;17.76;100.00
9257;BME280;4665;51.368;6.782;2023-07-13T08:45:46;101369.41;;;17.76;100.00
9257;BME280;4665;51.368;6.782;2023-07-13T08:48:25;101370.63;;;17.73;100.00
9257;BME280;4665;51.368;6.782;2023-07-13T08:51:02;101362.97;;;17.77;100.00
9257;BME280;4665;51.368;6.782;2023-07-13T08:53:39;101359.75;;;17.81;100.00
9257;BME280;4665;51.368;6.782;2023-07-13T08:56:11;101351.28;;;17.84;100.00
9257;BME280;4665;51.368;6.782;2023-07-13T08:58:38;101357.31;;;17.86;100.00
9257;BME280;4665;51.368;6.782;2023-07-13T09:01:22;101354.53;;;17.95;100.00
9257;BME280;4665;51.368;6.782;2023-07-13T09:04:19;101365.66;;;18.06;100.00
9257;BME280;4665;51.368;6.782;2023-07-13T09:12:11;101368.69;;;18.18;100.00
9257;BME280;4665;51.368;6.782;2023-07-13T09:14:41;101364.03;;;18.12;100.00
9257;BME280;4665;51.368;6.782;2023-07-13T09:17:17;101375.47;;;18.14;100.00
9257;BME280;4665;51.368;6.782;2023-07-13T09:19:43;101369.72;;;18.17;100.00
9257;BME280;4665;51.368;6.782;2023-07-13T09:22:16;101374.53;;;18.22;100.00
9257;BME280;4665;51.368;6.782;2023-07-13T09:27:23;101378.59;;;18.33;100.00
9257;BME280;4665;51.368;6.782;2023-07-13T09:30:22;101379.88;;;18.37;100.00
9257;BME280;4665;51.368;6.782;2023-07-13T09:32:50;101375.06;;;18.32;100.00
9257;BME280;4665;51.368;6.782;2023-07-13T09:35:20;101382.00;;;18.41;100.00
9257;BME280;4665;51.368;6.782;2023-07-13T09:37:47;101376.22;;;18.44;100.00
9257;BME280;4665;51.368;6.782;2023-07-13T09:40:28;101364.84;;;18.49;100.00
9257;BME280;4665;51.368;6.782;2023-07-13T09:42:58;101377.41;;;18.57;100.00
9257;BME280;4665;51.368;6.782;2023-07-13T09:45:29;101370.78;;;18.59;100.00
9257;BME280;4665;51.368;6.782;2023-07-13T09:48:14;101373.78;;;18.71;100.00
9257;BME280;4665;51.368;6.782;2023-07-13T09:50:41;101370.19;;;18.85;100.00
9257;BME280;4665;51.368;6.782;2023-07-13T09:53:13;101369.56;;;18.83;100.00
9257;BME280;4665;51.368;6.782;2023-07-13T09:55:41;101369.78;;;18.88;100.00
9257;BME280;4665;51.368;6.782;2023-07-13T09:58:15;101380.81;;;18.87;100.00
9257;BME280;4665;51.368;6.782;2023-07-13T10:00:43;101379.88;;;18.80;100.00
9257;BME280;4665;51.368;6.782;2023-07-13T10:03:27;101387.22;;;18.86;100.00
9257;BME280;4665;51.368;6.782;2023-07-13T10:05:53;101384.13;;;18.89;100.00
9257;BME280;4665;51.368;6.782;2023-07-13T10:08:30;101375.59;;;18.85;100.00
9257;BME280;4665;51.368;6.782;2023-07-13T10:11:09;101389.28;;;19.12;100.00
9257;BME280;4665;51.368;6.782;2023-07-13T10:13:37;101395.44;;;19.27;100.00
9257;BME280;4665;51.368;6.782;2023-07-13T10:16:07;101384.91;;;19.39;100.00
9257;BME280;4665;51.368;6.782;2023-07-13T10:18:45;101390.50;;;19.38;100.00
9257;BME280;4665;51.368;6.782;2023-07-13T10:21:18;101396.00;;;19.51;100.00
9257;BME280;4665;51.368;6.782;2023-07-13T10:23:48;101389.22;;;19.62;100.00
9257;BME280;4665;51.368;6.782;2023-07-13T10:26:23;101391.75;;;19.70;100.00
9257;BME280;4665;51.368;6.782;2023-07-13T10:28:53;101384.94;;;19.74;100.00
9257;BME280;4665;51.368;6.782;2023-07-13T10:31:21;101390.19;;;19.89;100.00
9257;BME280;4665;51.368;6.782;2023-07-13T10:33:46;101380.66;;;19.93;100.00
9257;BME280;4665;51.368;6.782;2023-07-13T10:36:21;101387.63;;;19.74;100.00
9257;BME280;4665;51.368;6.782;2023-07-13T10:38:51;101393.78;;;19.61;100.00
9257;BME280;4665;51.368;6.782;2023-07-13T10:41:21;101394.13;;;19.51;100.00
9257;BME280;4665;51.368;6.782;2023-07-13T10:43:51;101393.47;;;19.43;100.00
9257;BME280;4665;51.368;6.782;2023-07-13T10:46:20;101388.72;;;19.45;100.00
9257;BME280;4665;51.368;6.782;2023-07-13T10:48:51;101391.69;;;19.63;100.00
9257;BME280;4665;51.368;6.782;2023-07-13T10:51:18;101403.69;;;19.89;100.00
9257;BME280;4665;51.368;6.782;2023-07-13T10:53:48;101388.81;;;20.06;100.00
9257;BME280;4665;51.368;6.782;2023-07-13T10:56:33;101393.00;;;20.15;100.00
9257;BME280;4665;51.368;6.782;2023-07-13T11:02:22;101398.38;;;20.09;100.00
9257;BME280;4665;51.368;6.782;2023-07-13T11:04:47;101398.59;;;20.01;100.00
9257;BME280;4665;51.368;6.782;2023-07-13T11:07:25;101387.31;;;19.97;100.00
9257;BME280;4665;51.368;6.782;2023-07-13T11:09:57;101394.03;;;20.08;100.00
9257;BME280;4665;51.368;6.782;2023-07-13T11:23:08;101377.47;;;20.44;100.00
9257;BME280;4665;51.368;6.782;2023-07-13T11:25:36;101369.59;;;20.56;100.00
9257;BME280;4665;51.368;6.782;2023-07-13T11:33:28;101372.34;;;20.89;100.00
9257;BME280;4665;51.368;6.782;2023-07-13T11:38:32;101373.56;;;21.07;100.00
9257;BME280;4665;51.368;6.782;2023-07-13T11:41:06;101366.69;;;21.11;100.00
9257;BME280;4665;51.368;6.782;2023-07-13T11:43:32;101365.44;;;21.00;100.00
9257;BME280;4665;51.368;6.782;2023-07-13T11:46:12;101357.31;;;21.07;100.00
9257;BME280;4665;51.368;6.782;2023-07-13T11:48:38;101363.56;;;21.20;100.00
9257;BME280;4665;51.368;6.782;2023-07-13T11:51:04;101362.91;;;21.38;100.00
9257;BME280;4665;51.368;6.782;2023-07-13T11:53:39;101362.91;;;21.52;100.00
9257;BME280;4665;51.368;6.782;2023-07-13T11:56:06;101362.44;;;21.68;100.00
9257;BME280;4665;51.368;6.782;2023-07-13T11:58:32;101366.31;;;21.85;100.00
9257;BME280;4665;51.368;6.782;2023-07-13T12:00:59;101363.53;;;21.99;100.00
9257;BME280;4665;51.368;6.782;2023-07-13T12:03:27;101351.03;;;21.98;100.00
9257;BME280;4665;51.368;6.782;2023-07-13T12:06:05;101357.19;;;22.12;100.00
9257;BME280;4665;51.368;6.782;2023-07-13T12:08:37;101364.59;;;21.98;100.00
9257;BME280;4665;51.368;6.782;2023-07-13T12:11:14;101363.78;;;21.91;100.00
9257;BME280;4665;51.368;6.782;2023-07-13T12:13:40;101364.31;;;21.68;100.00
9257;BME280;4665;51.368;6.782;2023-07-13T12:16:15;101362.50;;;21.41;100.00
9257;BME280;4665;51.368;6.782;2023-07-13T12:18:43;101356.88;;;21.30;100.00
9257;BME280;4665;51.368;6.782;2023-07-13T12:21:16;101348.75;;;21.23;100.00
9257;BME280;4665;51.368;6.782;2023-07-13T12:23:44;101340.63;;;21.23;100.00
9257;BME280;4665;51.368;6.782;2023-07-13T12:26:11;101359.56;;;21.36;100.00
9257;BME280;4665;51.368;6.782;2023-07-13T12:28:44;101352.06;;;21.52;100.00
9257;BME280;4665;51.368;6.782;2023-07-13T12:31:30;101359.72;;;21.68;100.00
9257;BME280;4665;51.368;6.782;2023-07-13T12:36:36;101362.94;;;21.97;100.00
9257;BME280;4665;51.368;6.782;2023-07-13T12:39:39;101354.78;;;21.97;100.00
9257;BME280;4665;51.368;6.782;2023-07-13T12:42:21;101348.91;;;22.00;100.00
9257;BME280;4665;51.368;6.782;2023-07-13T12:44:49;101355.69;;;21.84;100.00
9257;BME280;4665;51.368;6.782;2023-07-13T12:47:15;101352.63;;;21.67;100.00
9257;BME280;4665;51.368;6.782;2023-07-13T12:49:50;101358.50;;;21.57;100.00
9257;BME280;4665;51.368;6.782;2023-07-13T12:52:20;101365.00;;;21.50;100.00
9257;BME280;4665;51.368;6.782;2023-07-13T12:54:58;101373.13;;;21.36;100.00
9257;BME280;4665;51.368;6.782;2023-07-13T12:57:25;101365.00;;;21.23;100.00
9257;BME280;4665;51.368;6.782;2023-07-13T12:59:55;101375.66;;;21.18;100.00
9257;BME280;4665;51.368;6.782;2023-07-13T13:02:32;101366.25;;;21.14;100.00
9257;BME280;4665;51.368;6.782;2023-07-13T13:05:00;101373.16;;;21.10;100.00
9257;BME280;4665;51.368;6.782;2023-07-13T13:07:26;101360.03;;;21.13;100.00
9257;BME280;4665;51.368;6.782;2023-07-13T13:09:52;101369.84;;;21.14;100.00
9257;BME280;4665;51.368;6.782;2023-07-13T13:12:19;101366.25;;;21.20;100.00
9257;BME280;4665;51.368;6.782;2023-07-13T13:14:45;101360.84;;;21.40;100.00
9257;BME280;4665;51.368;6.782;2023-07-13T13:17:28;101372.88;;;21.58;100.00
9257;BME280;4665;51.368;6.782;2023-07-13T13:19:54;101367.84;;;21.68;100.00
9257;BME280;4665;51.368;6.782;2023-07-13T13:22:21;101370.75;;;21.73;100.00
9257;BME280;4665;51.368;6.782;2023-07-13T13:24:46;101371.56;;;21.80;100.00
9257;BME280;4665;51.368;6.782;2023-07-13T13:27:20;101362.16;;;21.83;100.00
9257;BME280;4665;51.368;6.782;2023-07-13T13:29:49;101361.47;;;21.94;98.02
9257;BME280;4665;51.368;6.782;2023-07-13T13:32:17;101367.66;;;22.08;95.95
9257;BME280;4665;51.368;6.782;2023-07-13T13:34:42;101357.69;;;22.02;92.54
9257;BME280;4665;51.368;6.782;2023-07-13T13:39:43;101359.47;;;21.76;100.00